Latest Weather Observations for Wulungurru (Kintore)

IDD60801

Issued at 5:31 pm CST Wednesday 2 September 2015 (issued every 30 minutes, with the page automatically refreshed every 10 minutes)

About weather observations | Map of weather stations | Latest weather observations for NT | Other Formats
Station Details ID: 015664 Name: WALUNGURRU AIRPORT Lat: -23.27 Lon: 129.38 Height: 454.3 m
Data from the previous 72 hours. | See also: Recent months at Wulungurru (Kintore)
Date/Time
CST
Temp
°C
App
Temp
°C
Dew
Point
Rel
Hum
%
Delta-T
°C
Wind Press
QNH
hPa
Press
MSL
hPa
Rain
since 9 am
mm
Dir
 
Spd
km/h
Gust
km/h
Spd
kts
Gust
kts
02/05:30pm 22.6 16.3 -10.5 10 12.5 S 17 22 9 12 1018.4 - 0.0
02/05:00pm 23.1 17.3 -8.9 11 12.5 S 15 24 8 13 1018.2 - 0.0
02/04:30pm 23.2 17.0 -8.9 11 12.6 SSE 17 26 9 14 1018.2 - 0.0
02/04:00pm 23.1 16.5 -8.9 11 12.5 S 19 30 10 16 1018.0 - 0.0
02/03:30pm 22.9 16.7 -9.1 11 12.5 S 17 26 9 14 1018.2 - 0.0
02/03:00pm 23.0 16.5 -7.9 12 12.3 S 19 26 10 14 1018.5 1017.0 0.0
02/02:30pm 23.0 16.7 -5.9 14 12.0 SE 19 26 10 14 1018.8 - 0.0
02/02:00pm 22.1 15.8 -5.7 15 11.5 S 19 33 10 18 1019.0 - 0.0
02/01:30pm 22.2 15.9 -5.6 15 11.5 S 19 35 10 19 1019.3 - 0.0
02/01:00pm 21.3 14.9 -4.7 17 10.8 S 20 30 11 16 1019.8 - 0.0
02/12:30pm 20.9 14.8 -4.3 18 10.6 SSW 19 30 10 16 1020.1 - 0.0
02/12:00pm 20.2 14.4 -4.8 18 10.3 SSE 17 30 9 16 1020.5 1019.0 0.0
02/11:30am 19.1 12.9 -4.4 20 9.7 SSE 19 32 10 17 1020.9 - 0.0
02/11:00am 18.5 11.1 -3.6 22 9.2 SSE 26 37 14 20 1020.8 - 0.0
02/10:30am 17.3 9.1 -4.0 23 8.7 SE 30 41 16 22 1020.8 - 0.0
02/10:00am 16.3 7.5 -4.3 24 8.2 SE 33 44 18 24 1020.7 - 0.0
02/09:30am 15.9 6.4 -4.1 25 8.0 SE 37 48 20 26 1020.2 - 0.0
02/09:00am 14.9 6.0 -4.9 25 7.7 SE 33 46 18 25 1019.8 1018.3 0.0
02/08:30am 14.0 5.4 -4.2 28 7.1 SE 32 43 17 23 1019.7 - 0.0
02/08:00am 12.8 4.2 -3.9 31 6.5 SSE 32 44 17 24 1019.2 - 0.0
02/07:34am 12.1 4.3 -4.1 32 6.2 SSE 28 46 15 25 1019.0 - 0.0
02/07:30am 12.1 2.9 -4.1 32 6.2 SSE 35 50 19 27 1018.9 - 0.0
02/07:00am 12.4 3.8 -3.8 32 6.3 SSE 32 43 17 23 1018.3 - 0.0
02/06:30am 12.5 5.2 -2.5 35 6.0 S 26 37 14 20 1018.1 - 0.0
02/06:00am 13.2 6.4 -1.9 35 6.2 SSW 24 39 13 21 1017.5 1015.9 0.0
02/05:30am 13.9 6.3 -2.1 33 6.6 SSE 28 35 15 19 1017.0 - 0.0
02/05:00am 14.5 6.6 -1.6 33 6.7 SSE 30 44 16 24 1016.7 - 0.0
02/04:30am 15.3 8.2 -1.3 32 7.0 SSE 26 32 14 17 1016.3 - 0.0
02/04:00am 16.2 9.1 -1.4 30 7.5 SSE 26 35 14 19 1016.1 - 0.0
02/03:30am 17.3 10.2 -1.4 28 8.0 S 26 37 14 20 1015.9 - 0.0
02/03:00am 18.7 11.5 -2.3 24 9.0 S 26 43 14 23 1015.6 1014.0 0.0
02/02:30am 19.8 11.4 -2.5 22 9.6 SSW 32 48 17 26 1015.4 - 0.0
02/02:00am 20.3 12.6 -2.7 21 9.9 SSW 28 39 15 21 1015.3 - 0.0
02/01:30am 21.0 12.9 -2.8 20 10.3 SSW 30 41 16 22 1015.3 - 0.0
02/01:00am 21.2 14.6 -0.7 23 9.9 SSW 24 35 13 19 1015.2 - 0.0
02/12:30am 21.8 14.6 0.4 24 9.9 SW 28 39 15 21 1015.2 - 0.0
02/12:00am 22.0 14.8 0.5 24 10.0 SW 28 43 15 23 1015.0 1013.4 0.0
 
Date/Time
CST
Temp
°C
App
Temp
°C
Dew
Point
Rel
Hum
%
Delta-T
°C
Wind Press
QNH
hPa
Press
MSL
hPa
Rain
since 9 am
mm
Dir
 
Spd
km/h
Gust
km/h
Spd
kts
Gust
kts
01/11:30pm 21.9 15.0 0.4 24 10.0 SW 26 39 14 21 1014.9 - 0.0
01/11:00pm 21.9 15.8 0.4 24 10.0 SW 22 28 12 15 1014.7 - 0.0
01/10:30pm 21.1 15.6 0.9 26 9.4 SW 19 22 10 12 1014.6 - 0.0
01/10:00pm 20.8 15.7 0.6 26 9.3 SW 17 22 9 12 1014.4 - 0.0
01/09:30pm 19.5 15.0 0.0 27 8.8 SW 13 15 7 8 1014.2 - 0.0
01/09:00pm 19.9 15.8 -0.1 26 9.0 SW 11 13 6 7 1013.8 1012.3 0.0
01/08:30pm 21.2 17.1 -0.1 24 9.7 WSW 11 13 6 7 1013.4 - 0.0
01/08:00pm 22.9 18.5 0.1 22 10.6 WSW 13 15 7 8 1012.7 - 0.0
01/07:30pm 24.0 19.6 0.4 21 11.1 W 13 17 7 9 1012.1 - 0.0
01/07:00pm 25.7 19.9 -0.4 18 12.3 W 20 24 11 13 1011.5 - 0.0
01/06:30pm 26.9 21.2 -1.0 16 13.1 W 19 35 10 19 1011.1 - 0.0
01/06:00pm 28.1 21.9 -0.1 16 13.6 W 22 30 12 16 1010.8 1009.2 0.0
01/05:30pm 28.5 22.4 0.3 16 13.7 WSW 22 35 12 19 1010.6 - 0.0
01/05:00pm 29.3 23.7 0.9 16 14.0 W 20 33 11 18 1010.5 - 0.0
01/04:30pm 29.4 22.1 0.1 15 14.3 W 28 41 15 22 1010.5 - 0.0
01/04:00pm 29.9 22.5 -0.5 14 14.7 W 28 39 15 21 1010.5 - 0.0
01/03:30pm 29.8 21.7 -0.5 14 14.6 W 32 44 17 24 1010.5 - 0.0
01/03:00pm 30.3 23.7 -0.1 14 14.9 W 24 39 13 21 1010.6 1009.0 0.0
01/02:45pm 29.8 22.4 -0.5 14 14.6 W 28 46 15 25 1010.8 - 0.0
01/02:30pm 30.1 22.5 0.6 15 14.6 W 30 46 16 25 1010.9 - 0.0
01/02:02pm 30.2 23.0 0.7 15 14.6 W 28 46 15 25 1011.2 - 0.0
01/02:00pm 30.2 23.4 0.7 15 14.6 W 26 46 14 25 1011.1 - 0.0
01/01:41pm 29.4 22.4 1.8 17 13.8 W 28 48 15 26 1011.5 - 0.0
01/01:30pm 29.7 24.9 4.4 20 13.3 W 19 37 10 20 1011.7 - 0.0
01/01:00pm 29.4 22.8 1.8 17 13.8 W 26 39 14 21 1012.3 - 0.0
01/12:30pm 28.7 23.1 3.5 20 12.9 WSW 22 32 12 17 1012.4 - 0.0
01/12:00pm 27.4 23.1 6.8 27 11.1 SW 19 30 10 16 1013.0 1011.4 0.0
01/11:30am 26.9 23.4 7.4 29 10.6 SSW 15 22 8 12 1013.2 - 0.0
01/11:00am 26.2 23.3 8.2 32 9.9 SW 13 22 7 12 1013.4 - 0.0
01/10:30am 24.4 21.2 8.4 36 8.7 WSW 15 20 8 11 1013.7 - 0.0
01/10:00am 24.2 21.7 9.8 40 8.0 WSW 13 19 7 10 1013.7 - 0.0
01/09:30am 22.1 20.2 10.6 48 6.4 W 11 17 6 9 1013.3 - 0.0
01/09:00am 20.8 19.5 11.2 54 5.4 W 9 13 5 7 1013.1 1011.5 0.6
01/08:30am 19.5 19.5 11.0 58 4.7 W 2 7 1 4 1012.9 - 0.6
01/08:00am 16.9 17.2 12.2 74 2.6 WSW 2 9 1 5 1012.8 - 0.6
01/07:30am 17.0 15.6 10.8 67 3.4 NE 9 11 5 6 1012.4 - 0.6
01/07:00am 17.9 15.8 11.0 64 3.8 ENE 13 20 7 11 1011.7 - 0.6
01/06:30am 18.1 15.7 11.4 65 3.7 NE 15 17 8 9 1011.7 - 0.6
01/06:00am 18.9 16.2 11.7 63 4.1 NE 17 20 9 11 1011.6 - 0.6
01/05:30am 19.4 18.0 12.2 63 4.1 NE 11 17 6 9 1011.4 - 0.6
01/05:00am 19.3 18.0 12.6 65 3.8 ENE 11 15 6 8 1011.3 - 0.6
01/04:30am 18.4 17.6 13.9 75 2.6 NE 11 15 6 8 1011.4 - 0.6
01/04:00am 18.5 17.5 15.7 84 1.7 NE 15 17 8 9 1011.7 - 0.6
01/03:30am 18.1 18.5 14.8 81 2.0 SE 6 11 3 6 1012.4 - 0.6
01/03:00am 18.8 19.9 15.5 81 2.0 E 4 9 2 5 1012.8 1011.2 0.6
01/02:30am 18.0 17.1 14.9 82 1.8 SE 13 15 7 8 1012.4 - 0.6
01/02:00am 18.5 17.9 14.6 78 2.3 WSW 11 15 6 8 1013.3 - 0.4
01/01:30am 20.7 18.5 13.2 62 4.4 SW 17 22 9 12 1013.5 - 0.4
01/01:00am 19.6 18.2 13.5 68 3.6 ENE 13 15 7 8 1012.8 - 0.4
01/12:30am 19.6 19.1 14.8 74 2.9 NE 11 13 6 7 1013.3 - 0.4
01/12:00am 19.9 19.9 16.2 79 2.3 E 11 15 6 8 1013.7 1012.1 0.4
 
Date/Time
CST
Temp
°C
App
Temp
°C
Dew
Point
Rel
Hum
%
Delta-T
°C
Wind Press
QNH
hPa
Press
MSL
hPa
Rain
since 9 am
mm
Dir
 
Spd
km/h
Gust
km/h
Spd
kts
Gust
kts
31/11:30pm 20.2 19.6 13.4 65 4.0 SSE 9 13 5 7 1013.8 - 0.0
31/11:00pm 21.3 20.3 12.4 57 5.1 WNW 9 13 5 7 1015.0 - 0.0
31/10:30pm 21.6 20.6 11.0 51 6.0 S 7 11 4 6 1013.9 - 0.0
31/10:00pm 22.1 21.9 10.6 48 6.4 E 2 6 1 3 1013.9 - 0.0
31/09:30pm 22.0 20.0 11.4 51 6.0 SSE 13 19 7 10 1014.0 - 0.0
31/09:00pm 22.3 19.6 11.7 51 6.1 SSE 17 22 9 12 1014.2 1013.4 0.0
31/08:30pm 22.5 19.5 11.9 51 6.1 SSE 19 22 10 12 1013.9 - 0.0
31/08:00pm 22.7 19.7 12.0 50 6.2 SE 19 22 10 12 1013.7 - 0.0
31/07:30pm 24.4 22.2 10.7 42 7.8 S 13 19 7 10 1013.9 - 0.0
31/07:00pm 25.0 22.1 9.7 38 8.6 S 15 20 8 11 1013.5 - 0.0
31/06:30pm 27.7 24.8 8.1 29 10.8 NW 13 17 7 9 1013.0 - 0.0
31/06:00pm 28.1 24.8 7.9 28 11.2 NNW 15 20 8 11 1012.8 1012.1 0.0
31/05:30pm 28.5 25.1 7.7 27 11.5 NW 15 20 8 11 1012.7 - 0.0
31/05:00pm 28.2 23.7 6.9 26 11.6 NNW 20 24 11 13 1012.7 - 0.0
31/04:30pm 28.5 24.9 6.6 25 11.9 NNW 15 19 8 10 1012.6 - 0.0
31/04:00pm 29.3 24.7 6.7 24 12.3 NW 20 32 11 17 1012.9 - 0.0
31/03:30pm 29.5 25.3 7.4 25 12.2 N 19 28 10 15 1013.4 - 0.0
31/03:00pm 29.2 25.3 7.2 25 12.1 N 17 28 9 15 1013.9 1013.2 0.0
31/02:30pm 28.3 24.1 8.1 28 11.2 N 20 30 11 16 1014.7 - 0.0
31/02:00pm 28.5 23.8 7.7 27 11.5 N 22 33 12 18 1015.0 - 0.0
31/01:30pm 28.0 23.2 7.3 27 11.3 N 22 32 12 17 1015.5 - 0.0
31/01:00pm 26.7 22.8 9.5 34 9.7 N 20 33 11 18 1016.2 - 0.0
31/12:30pm 25.7 20.9 8.7 34 9.4 NNE 24 37 13 20 1016.8 - 0.0
31/12:00pm 25.9 21.6 9.3 35 9.3 NNE 22 33 12 18 1017.1 1016.4 0.0
31/11:30am 25.2 20.0 8.7 35 9.1 NNE 26 39 14 21 1017.5 - 0.0
31/11:00am 25.4 20.1 8.4 34 9.3 NNE 26 35 14 19 1017.9 - 0.0
31/10:30am 24.8 20.7 11.4 43 7.7 NNE 24 30 13 16 1018.0 - 0.0
31/10:00am 23.4 19.3 11.5 47 6.8 NE 24 32 13 17 1017.7 - 0.0
31/09:30am 22.0 17.9 11.4 51 6.0 NE 24 30 13 16 1017.7 - 0.0
31/09:00am 21.3 17.0 12.2 56 5.2 NE 26 33 14 18 1017.6 1016.9 0.4
31/08:30am 20.0 16.3 12.7 63 4.2 NE 24 30 13 16 1017.4 - 0.4
31/08:00am 18.2 15.3 12.4 69 3.3 ENE 19 24 10 13 1017.4 - 0.4
31/07:30am 19.5 16.0 10.8 57 4.8 ENE 20 28 11 15 1017.0 - 0.4
31/07:00am 19.6 15.6 10.3 55 5.1 E 22 30 12 16 1016.8 - 0.4
31/06:30am 19.0 15.7 10.8 59 4.5 E 19 32 10 17 1016.6 - 0.4
31/06:00am 18.5 14.3 12.5 68 3.4 SE 26 33 14 18 1016.6 1015.9 0.4
31/05:30am 17.2 13.9 13.9 81 1.9 SSE 24 32 13 17 1017.1 - 0.4
31/05:00am 17.6 14.8 13.3 76 2.5 SSE 20 28 11 15 1016.7 - 0.4
31/04:30am 17.7 15.2 13.6 77 2.4 SSE 19 22 10 12 1016.3 - 0.4
31/04:00am 18.1 15.0 13.4 74 2.7 SSE 22 30 12 16 1016.8 - 0.4
31/03:30am 20.2 17.9 11.9 59 4.7 SE 15 24 8 13 1017.1 - 0.4
31/03:00am 19.4 16.6 12.7 65 3.8 SW 19 22 10 12 1017.0 1016.3 0.4
31/02:30am 18.7 16.9 13.3 71 3.1 ENE 15 17 8 9 1016.3 - 0.4
31/02:00am 18.3 17.4 13.8 75 2.6 E 11 15 6 8 1016.8 - 0.4
31/01:30am 18.4 17.3 14.3 77 2.4 NE 13 15 7 8 1017.0 - 0.4
31/01:00am 19.3 17.8 14.3 73 3.0 NE 15 17 8 9 1017.3 - 0.4
31/12:30am 20.0 18.8 14.1 69 3.5 NE 13 17 7 9 1017.5 - 0.4
31/12:00am 21.6 19.5 11.3 52 5.8 ENE 13 17 7 9 1017.3 1016.6 0.4
 
Date/Time
CST
Temp
°C
App
Temp
°C
Dew
Point
Rel
Hum
%
Delta-T
°C
Wind Press
QNH
hPa
Press
MSL
hPa
Rain
since 9 am
mm
Dir
 
Spd
km/h
Gust
km/h
Spd
kts
Gust
kts
30/11:30pm 20.1 19.4 13.1 64 4.1 E 9 11 5 6 1017.6 - 0.4
30/11:00pm 19.6 19.0 14.6 73 3.0 S 11 15 6 8 1018.0 - 0.4
30/10:30pm 20.9 19.6 13.6 63 4.3 SSE 13 20 7 11 1018.8 - 0.2
30/10:00pm 21.3 18.5 13.2 60 4.7 SSE 20 26 11 14 1018.0 - 0.2
30/09:30pm 20.9 18.5 13.8 64 4.2 SSE 19 24 10 13 1018.2 - 0.2
30/09:00pm 20.7 18.5 14.4 67 3.7 SSE 19 22 10 12 1018.1 1017.4 0.2
30/08:30pm 21.2 20.1 14.4 65 4.1 SE 13 17 7 9 1018.0 - 0.2
30/08:00pm 21.6 20.4 14.0 62 4.5 SSE 13 17 7 9 1018.0 - 0.2
30/07:30pm 21.0 21.0 15.3 70 3.4 SSW 9 15 5 8 1017.8 - 0.2
30/07:00pm 20.6 19.8 16.2 76 2.7 SW 15 22 8 12 1018.0 - 0.2
30/06:30pm 20.3 19.4 15.9 76 2.7 W 15 20 8 11 1018.1 - 0.2
30/06:00pm 22.4 18.2 13.5 57 5.2 WNW 28 43 15 23 1017.6 1016.9 0.2
30/05:47pm 27.0 20.2 7.5 29 10.6 NW 33 41 18 22 1017.0 - 0.0

Other Formats:

Comma delimited format used in spreadsheet applications
http://www.bom.gov.au/fwo/IDD60801/IDD60801.94321.axf

JavaScript Object Notation format (JSON) in row-major order
http://www.bom.gov.au/fwo/IDD60801/IDD60801.94321.json